Time;durP1;ratioP1;P1;durP2;ratioP2;P2;SDS_P1;SDS_P2;PMS_P1;PMS_P2;Temp;Humidity;BMP_temperature;BMP_pressure;BME280_temperature;BME280_humidity;BME280_pressure;Samples;Min_cycle;Max_cycle;Signal;HPM_P1;HPM_P2
2023/06/27 00:01:22;;;;;;;5.47;2.40;;;;;;;22.19;37.09;96530.88;5026369;28;20418;-69
2023/06/27 00:03:51;;;;;;;5.87;2.40;;;;;;;22.16;37.22;96524.97;5026488;28;20247;-69
2023/06/27 00:06:19;;;;;;;14.93;3.90;;;;;;;22.21;37.59;96521.91;5030695;28;20167;-68
2023/06/27 00:08:48;;;;;;;11.10;2.40;;;;;;;22.23;37.18;96525.28;5030363;28;20446;-69
2023/06/27 00:11:14;;;;;;;4.97;2.70;;;;;;;22.28;37.72;96531.09;5030481;28;20966;-70
2023/06/27 00:13:41;;;;;;;3.70;2.20;;;;;;;21.97;37.74;96531.09;5030187;28;20439;-69
2023/06/27 00:16:13;;;;;;;6.07;2.30;;;;;;;21.99;37.75;96535.31;5030826;28;20262;-68
2023/06/27 00:18:40;;;;;;;7.17;2.57;;;;;;;22.08;37.88;96535.47;5030279;28;20461;-69
2023/06/27 00:21:06;;;;;;;30.50;6.30;;;;;;;22.06;37.58;96530.25;5030563;28;20517;-69
2023/06/27 00:23:34;;;;;;;10.03;2.60;;;;;;;22.12;37.54;96528.88;5029496;28;20442;-69
2023/06/27 00:26:00;;;;;;;4.30;2.40;;;;;;;22.21;37.30;96527.25;5030146;28;20348;-69
2023/06/27 00:28:27;;;;;;;3.30;2.50;;;;;;;22.25;37.31;96525.97;5029882;28;21116;-69
2023/06/27 00:30:52;;;;;;;8.27;3.00;;;;;;;22.24;37.38;96538.50;5029557;28;20590;-68
2023/06/27 00:33:18;;;;;;;7.57;2.43;;;;;;;22.26;37.24;96533.88;5029584;28;20445;-69
2023/06/27 00:35:43;;;;;;;5.17;2.57;;;;;;;22.11;37.75;96532.53;5030464;28;20225;-69
2023/06/27 00:38:08;;;;;;;14.93;3.43;;;;;;;22.08;37.83;96530.97;5032143;28;20202;-69
2023/06/27 00:40:34;;;;;;;12.03;3.33;;;;;;;22.22;38.26;96528.94;5031346;28;20179;-69
2023/06/27 00:42:59;;;;;;;14.10;3.10;;;;;;;22.29;37.72;96538.09;5030694;28;20282;-70
2023/06/27 00:45:25;;;;;;;3.00;2.00;;;;;;;22.16;37.95;96536.50;5029314;28;20250;-69
2023/06/27 00:47:53;;;;;;;7.23;2.60;;;;;;;22.28;38.24;96547.97;5029418;28;20168;-69
2023/06/27 00:50:24;;;;;;;3.60;1.97;;;;;;;22.13;38.13;96547.44;5029706;28;20202;-70
2023/06/27 00:52:51;;;;;;;10.10;2.83;;;;;;;22.29;37.62;96544.28;5029867;28;20800;-69
2023/06/27 00:55:17;;;;;;;12.17;3.23;;;;;;;22.02;38.05;96544.03;5029676;28;20448;-68
2023/06/27 00:57:46;;;;;;;4.77;2.50;;;;;;;21.95;38.21;96549.91;5029961;28;20449;-69
2023/06/27 01:00:12;;;;;;;3.47;2.23;;;;;;;21.79;38.41;96549.56;5029502;28;20432;-69
2023/06/27 01:02:38;;;;;;;7.60;2.60;;;;;;;21.93;38.77;96551.03;5030036;28;20422;-68
2023/06/27 01:05:05;;;;;;;14.40;3.57;;;;;;;21.87;38.57;96546.22;5029162;28;20456;-69
2023/06/27 01:08:01;;;;;;;12.93;3.50;;;;;;;21.97;39.04;96550.63;5029855;28;20255;-69
2023/06/27 01:10:36;;;;;;;4.70;2.27;;;;;;;21.86;39.20;96547.22;5025865;28;20426;-69
2023/06/27 01:13:27;;;;;;;5.90;2.53;;;;;;;21.88;38.44;96551.44;5029297;28;20485;-69
2023/06/27 01:15:53;;;;;;;6.70;2.43;;;;;;;21.84;38.88;96547.31;5023335;28;20441;-69
2023/06/27 01:18:20;;;;;;;12.00;3.60;;;;;;;22.05;38.40;96552.63;5030614;28;21255;-70
2023/06/27 01:20:46;;;;;;;10.27;2.90;;;;;;;21.89;38.66;96549.59;5029167;28;20179;-69
2023/06/27 01:23:22;;;;;;;5.13;2.90;;;;;;;21.89;39.08;96547.75;5027081;28;20947;-69
2023/06/27 01:25:50;;;;;;;5.10;2.63;;;;;;;21.70;39.32;96558.38;5028495;28;20514;-69
2023/06/27 01:28:15;;;;;;;3.20;2.20;;;;;;;21.74;39.54;96562.47;5029284;28;20493;-68
2023/06/27 01:30:41;;;;;;;7.73;3.10;;;;;;;21.50;39.56;96547.56;5028809;28;20479;-69
2023/06/27 01:33:17;;;;;;;5.03;2.33;;;;;;;21.58;39.61;96554.91;5028542;28;20211;-69
2023/06/27 01:35:56;;;;;;;9.93;3.40;;;;;;;21.46;39.72;96550.63;5027210;28;20527;-69
2023/06/27 01:38:30;;;;;;;7.63;2.83;;;;;;;21.62;39.55;96550.19;5028315;28;20484;-69
2023/06/27 01:40:57;;;;;;;9.30;2.80;;;;;;;21.54;39.76;96549.00;5028245;28;20456;-68
2023/06/27 01:43:24;;;;;;;13.00;3.57;;;;;;;21.54;40.33;96542.81;5026323;28;20446;-68
2023/06/27 01:45:50;;;;;;;28.57;4.80;;;;;;;21.57;39.88;96555.91;5028044;28;20568;-68
2023/06/27 01:48:16;;;;;;;4.60;2.90;;;;;;;21.52;39.68;96550.09;5028267;28;20911;-68
2023/06/27 01:50:42;;;;;;;6.60;2.80;;;;;;;21.56;40.49;96546.19;5028263;28;20924;-68
2023/06/27 01:53:07;;;;;;;12.40;2.77;;;;;;;21.38;40.42;96548.59;5028127;28;20445;-68
2023/06/27 01:55:33;;;;;;;4.63;2.83;;;;;;;21.52;40.66;96550.97;5027969;28;20175;-68
2023/06/27 01:57:59;;;;;;;4.13;2.23;;;;;;;21.47;40.20;96546.97;5027764;28;20195;-68
2023/06/27 02:00:24;;;;;;;6.00;2.50;;;;;;;21.37;40.50;96546.88;5027853;28;20210;-68
2023/06/27 02:02:50;;;;;;;4.37;2.50;;;;;;;21.46;40.46;96542.63;5028449;28;20504;-68
2023/06/27 02:05:15;;;;;;;5.60;2.50;;;;;;;21.32;40.72;96544.59;5028193;28;20258;-68
2023/06/27 02:07:41;;;;;;;11.40;3.80;;;;;;;21.44;40.63;96555.25;5027871;28;20174;-68
2023/06/27 02:10:07;;;;;;;9.20;3.00;;;;;;;21.44;40.28;96549.91;5027872;28;20183;-68
2023/06/27 02:12:32;;;;;;;3.60;2.50;;;;;;;21.32;40.99;96557.13;5027798;28;20178;-69
2023/06/27 02:14:58;;;;;;;17.73;4.60;;;;;;;21.31;41.07;96550.94;5027054;28;20462;-70
2023/06/27 02:17:23;;;;;;;6.73;3.10;;;;;;;21.11;41.39;96551.75;5027731;28;20179;-68
2023/06/27 02:19:48;;;;;;;15.40;3.93;;;;;;;21.22;41.00;96541.03;5028383;28;20199;-69
2023/06/27 02:22:14;;;;;;;9.20;2.90;;;;;;;21.32;41.20;96538.44;5028465;28;20533;-69
2023/06/27 02:24:39;;;;;;;4.20;2.50;;;;;;;21.47;40.37;96544.31;5027442;28;20195;-69
2023/06/27 02:27:05;;;;;;;7.67;3.40;;;;;;;21.43;40.92;96543.75;5027847;28;20194;-68
2023/06/27 02:29:30;;;;;;;14.87;4.00;;;;;;;21.32;41.17;96539.25;5027534;28;20696;-68
2023/06/27 02:31:56;;;;;;;6.20;2.30;;;;;;;21.37;40.72;96528.19;5026905;28;20210;-68
2023/06/27 02:34:21;;;;;;;7.23;3.00;;;;;;;21.50;40.79;96533.38;5027226;28;20192;-68
2023/06/27 02:36:47;;;;;;;7.37;3.20;;;;;;;21.36;40.73;96531.84;5028010;28;21073;-69
2023/06/27 02:39:12;;;;;;;6.93;3.00;;;;;;;21.36;40.66;96534.53;5028249;28;20627;-68
2023/06/27 02:41:37;;;;;;;11.47;3.43;;;;;;;21.24;41.02;96546.25;5028495;28;20179;-68
2023/06/27 02:44:03;;;;;;;41.10;8.83;;;;;;;21.31;41.01;96547.44;5027092;28;20195;-68
2023/06/27 02:46:28;;;;;;;11.17;2.77;;;;;;;21.45;40.70;96538.25;5027274;28;20164;-69
2023/06/27 02:48:53;;;;;;;25.87;4.23;;;;;;;21.40;40.85;96537.81;5028310;28;20593;-69
2023/06/27 02:51:21;;;;;;;23.97;4.50;;;;;;;21.39;40.49;96544.94;5027179;28;20176;-67
2023/06/27 02:53:47;;;;;;;18.30;5.40;;;;;;;21.46;40.93;96542.63;5026541;28;20523;-69
2023/06/27 02:56:12;;;;;;;13.00;3.30;;;;;;;21.34;40.88;96540.00;5027586;28;20425;-69
2023/06/27 02:58:39;;;;;;;9.40;3.20;;;;;;;21.26;41.19;96539.81;5026739;28;20227;-69
2023/06/27 03:01:06;;;;;;;13.47;4.00;;;;;;;21.15;41.40;96539.84;5026640;28;20175;-69
2023/06/27 03:03:32;;;;;;;4.27;3.03;;;;;;;20.89;41.87;96540.22;5026649;28;20794;-68
2023/06/27 03:05:58;;;;;;;5.30;3.47;;;;;;;21.00;41.87;96543.81;5027020;28;20439;-68
2023/06/27 03:08:23;;;;;;;23.67;5.30;;;;;;;21.11;41.45;96539.25;5027197;28;20780;-68
2023/06/27 03:10:49;;;;;;;10.87;3.60;;;;;;;21.08;41.63;96544.88;5026904;28;20422;-69
2023/06/27 03:13:14;;;;;;;18.00;4.60;;;;;;;21.05;41.92;96547.78;5027034;28;20274;-68
2023/06/27 03:15:39;;;;;;;8.60;3.10;;;;;;;21.13;41.87;96539.13;5026889;28;20186;-69
2023/06/27 03:18:05;;;;;;;16.70;4.67;;;;;;;20.92;41.85;96539.94;5026455;28;20283;-69
2023/06/27 03:20:30;;;;;;;19.43;4.10;;;;;;;20.90;42.03;96541.91;5026569;28;20179;-69
2023/06/27 03:22:56;;;;;;;27.33;4.90;;;;;;;21.02;42.04;96540.03;5025383;28;20198;-69
2023/06/27 03:25:21;;;;;;;23.63;5.10;;;;;;;20.88;42.25;96538.53;5025144;28;20183;-69
2023/06/27 03:27:46;;;;;;;10.40;3.20;;;;;;;20.85;42.66;96538.78;5026941;28;20167;-69
2023/06/27 03:30:13;;;;;;;20.27;5.57;;;;;;;20.97;42.01;96541.41;5026779;28;20270;-69
2023/06/27 03:32:38;;;;;;;21.57;5.07;;;;;;;21.08;42.11;96541.34;5026375;28;20171;-69
2023/06/27 03:35:04;;;;;;;14.33;3.33;;;;;;;21.17;41.91;96543.25;5025959;28;20407;-70
2023/06/27 03:37:30;;;;;;;13.80;4.57;;;;;;;21.22;41.50;96549.03;5026356;28;20200;-68
2023/06/27 03:39:56;;;;;;;19.13;3.57;;;;;;;21.23;42.05;96548.06;5027954;28;20418;-69
2023/06/27 03:42:22;;;;;;;9.87;3.47;;;;;;;21.23;41.45;96555.22;5030710;28;20187;-68
2023/06/27 03:44:47;;;;;;;4.27;3.03;;;;;;;21.30;41.78;96565.25;5030346;28;20406;-69
2023/06/27 03:47:12;;;;;;;10.37;3.37;;;;;;;21.21;41.58;96559.84;5030863;28;20572;-69
2023/06/27 03:49:38;;;;;;;19.80;4.70;;;;;;;21.40;41.37;96561.81;5030755;28;20195;-69
2023/06/27 03:52:04;;;;;;;54.80;9.67;;;;;;;21.24;41.45;96557.78;5030228;28;20203;-69
2023/06/27 03:54:29;;;;;;;13.60;3.53;;;;;;;21.17;41.90;96564.59;5030234;28;20861;-69
2023/06/27 03:56:54;;;;;;;10.17;3.30;;;;;;;21.14;41.77;96564.84;5030773;28;20168;-69
2023/06/27 03:59:20;;;;;;;4.87;2.60;;;;;;;21.19;41.48;96561.78;5030515;28;20561;-69
2023/06/27 04:01:46;;;;;;;17.37;4.00;;;;;;;21.18;41.66;96560.94;5030388;28;20211;-69
2023/06/27 04:04:12;;;;;;;14.03;4.70;;;;;;;21.16;41.86;96552.22;5030338;28;20285;-69
2023/06/27 04:06:37;;;;;;;42.00;7.63;;;;;;;21.12;42.17;96550.81;5032468;28;20171;-69
2023/06/27 04:09:03;;;;;;;21.30;5.10;;;;;;;21.10;41.68;96552.75;5032007;28;20426;-70
2023/06/27 04:11:28;;;;;;;39.17;7.07;;;;;;;21.24;41.88;96555.09;5031250;28;20168;-70
2023/06/27 04:13:56;;;;;;;30.00;6.77;;;;;;;21.28;41.84;96559.22;5030611;28;20678;-70
2023/06/27 04:16:22;;;;;;;105.40;11.33;;;;;;;21.17;41.78;96556.59;5030805;28;20659;-69
2023/06/27 04:18:47;;;;;;;14.77;3.97;;;;;;;21.22;42.18;96559.72;5030474;28;20457;-68
2023/06/27 04:21:12;;;;;;;13.37;3.53;;;;;;;21.23;41.77;96565.91;5030718;28;20496;-69
2023/06/27 04:23:38;;;;;;;22.40;5.17;;;;;;;21.25;42.24;96562.13;5029431;28;20219;-70
2023/06/27 04:26:05;;;;;;;58.97;8.67;;;;;;;21.33;42.01;96567.69;5027480;28;20528;-69
2023/06/27 04:28:33;;;;;;;33.37;5.83;;;;;;;21.29;41.77;96568.06;5025130;28;20244;-67
2023/06/27 04:31:00;;;;;;;16.93;4.67;;;;;;;21.12;42.59;96572.16;5029599;28;20414;-68
2023/06/27 04:33:27;;;;;;;12.10;4.20;;;;;;;21.21;42.73;96582.03;5029278;28;20430;-68
2023/06/27 04:35:54;;;;;;;5.57;3.20;;;;;;;21.42;42.30;96582.06;5030009;28;21316;-68
2023/06/27 04:38:19;;;;;;;5.47;3.47;;;;;;;20.39;44.73;96582.50;5031016;28;20840;-69
2023/06/27 04:40:45;;;;;;;12.33;3.50;;;;;;;20.79;44.40;96587.31;5028694;28;20438;-67
2023/06/27 04:43:10;;;;;;;7.10;3.70;;;;;;;20.64;44.47;96577.88;5034352;28;20234;-68
2023/06/27 04:45:35;;;;;;;14.40;4.00;;;;;;;20.94;43.45;96578.03;5034959;28;20270;-69
2023/06/27 04:48:01;;;;;;;7.67;4.00;;;;;;;21.13;43.06;96576.50;5041893;28;20178;-69
2023/06/27 04:50:26;;;;;;;10.67;3.97;;;;;;;21.13;42.90;96574.66;5022858;28;21010;-69
2023/06/27 04:52:51;;;;;;;9.90;3.60;;;;;;;20.72;43.25;96570.13;5033947;28;20204;-70
2023/06/27 04:55:17;;;;;;;33.93;5.70;;;;;;;21.27;42.77;96562.84;5032476;28;20216;-70
2023/06/27 04:57:42;;;;;;;8.67;3.63;;;;;;;21.06;42.74;96567.31;5042705;28;20199;-69
2023/06/27 05:00:11;;;;;;;16.70;4.30;;;;;;;21.33;42.75;96572.13;5034673;28;20194;-70
2023/06/27 05:02:37;;;;;;;9.47;3.83;;;;;;;21.30;43.10;96573.25;5019224;28;20175;-69
2023/06/27 05:05:04;;;;;;;14.80;4.63;;;;;;;21.34;42.90;96577.38;5034956;28;20438;-70
2023/06/27 05:07:30;;;;;;;62.30;8.10;;;;;;;21.31;42.83;96568.78;5040222;28;20195;-70
2023/06/27 05:09:55;;;;;;;7.40;3.37;;;;;;;21.44;43.46;96579.28;5037448;28;20532;-69
2023/06/27 05:12:21;;;;;;;11.93;4.40;;;;;;;21.43;43.51;96575.78;5029233;28;20198;-71
2023/06/27 05:14:46;;;;;;;39.33;6.60;;;;;;;21.35;41.67;96572.88;5031499;28;20258;-71
2023/06/27 05:17:11;;;;;;;14.60;3.90;;;;;;;21.62;41.95;96569.72;5036747;28;20190;-70
2023/06/27 05:19:37;;;;;;;3.50;3.03;;;;;;;21.05;43.30;96570.97;5036915;28;20174;-70
2023/06/27 05:22:02;;;;;;;9.53;3.50;;;;;;;20.63;44.54;96577.03;5036458;28;20194;-69
2023/06/27 05:24:28;;;;;;;6.17;2.70;;;;;;;20.64;45.57;96576.06;5020138;28;20681;-70
2023/06/27 05:26:53;;;;;;;19.00;4.00;;;;;;;20.95;44.25;96581.53;5027071;28;20183;-70
2023/06/27 05:29:18;;;;;;;9.83;3.57;;;;;;;21.30;44.29;96580.41;5033555;28;20174;-70
2023/06/27 05:31:44;;;;;;;35.03;6.70;;;;;;;21.46;43.02;96577.34;5020819;28;20183;-68
2023/06/27 05:34:09;;;;;;;11.10;4.37;;;;;;;21.23;44.04;96576.56;5035131;28;20265;-70
2023/06/27 05:36:35;;;;;;;17.47;4.17;;;;;;;21.42;44.20;96576.75;5038411;28;20183;-70
2023/06/27 05:39:04;;;;;;;12.60;4.37;;;;;;;21.34;44.08;96582.69;5028182;28;20274;-68
2023/06/27 05:41:30;;;;;;;15.57;4.50;;;;;;;21.46;43.04;96588.03;5029853;28;20222;-68
2023/06/27 05:43:56;;;;;;;11.67;4.20;;;;;;;21.40;43.30;96585.84;5030225;28;20452;-70
2023/06/27 05:46:21;;;;;;;6.70;3.43;;;;;;;21.09;44.27;96593.72;5039941;28;20409;-69
2023/06/27 05:48:47;;;;;;;7.97;3.80;;;;;;;21.15;43.63;96594.06;5052575;28;20178;-70
2023/06/27 05:51:12;;;;;;;10.20;3.80;;;;;;;20.76;43.89;96590.19;5025971;28;20188;-69
2023/06/27 05:53:39;;;;;;;10.53;3.30;;;;;;;20.40;44.17;96586.84;5030269;28;20279;-70
2023/06/27 05:56:04;;;;;;;10.73;3.90;;;;;;;20.36;44.41;96582.75;5039770;28;20178;-71
2023/06/27 05:58:30;;;;;;;17.00;4.60;;;;;;;20.12;47.37;96572.22;5028712;28;20461;-70
2023/06/27 06:00:55;;;;;;;6.50;4.07;;;;;;;20.37;47.08;96578.28;5025659;28;20195;-70
2023/06/27 06:03:22;;;;;;;9.47;3.40;;;;;;;19.94;48.14;96579.88;5025238;28;20184;-69
2023/06/27 06:05:47;;;;;;;17.90;4.43;;;;;;;20.15;47.55;96584.47;5025252;28;20230;-69
2023/06/27 06:08:13;;;;;;;9.37;3.60;;;;;;;20.21;47.59;96582.16;5040450;28;20411;-71
2023/06/27 06:10:39;;;;;;;22.23;4.83;;;;;;;19.89;48.38;96590.06;5026160;28;20191;-69
2023/06/27 06:13:04;;;;;;;8.43;4.43;;;;;;;19.78;48.97;96596.19;5025456;28;20266;-70
2023/06/27 06:15:29;;;;;;;7.03;3.77;;;;;;;20.35;47.44;96596.22;5024643;28;20263;-70
2023/06/27 06:17:55;;;;;;;35.90;7.97;;;;;;;20.58;46.73;96599.72;5024337;28;20695;-69
2023/06/27 06:20:20;;;;;;;11.33;4.40;;;;;;;21.06;45.59;96607.34;5025267;28;20171;-68
2023/06/27 06:22:46;;;;;;;11.93;3.80;;;;;;;21.19;45.10;96604.47;5024667;28;20192;-70
2023/06/27 06:25:12;;;;;;;14.80;4.43;;;;;;;21.12;44.97;96605.00;5024889;28;20175;-69
2023/06/27 06:27:37;;;;;;;10.40;3.57;;;;;;;20.75;44.65;96596.53;5024753;28;20789;-69
2023/06/27 06:30:03;;;;;;;8.43;3.30;;;;;;;20.15;47.34;96592.44;5024811;28;20186;-69
2023/06/27 06:32:28;;;;;;;19.37;5.10;;;;;;;20.72;46.73;96602.97;5025723;28;20263;-68
2023/06/27 06:34:53;;;;;;;24.50;4.40;;;;;;;21.45;45.27;96602.31;5027158;28;20591;-70
2023/06/27 06:37:19;;;;;;;13.90;5.00;;;;;;;21.89;43.97;96598.53;5026794;28;20183;-71
2023/06/27 06:39:44;;;;;;;8.07;3.90;;;;;;;22.11;43.26;96608.22;5024610;28;20180;-69
2023/06/27 06:42:10;;;;;;;12.47;3.80;;;;;;;22.50;41.68;96597.69;5027742;28;20949;-69
2023/06/27 06:44:35;;;;;;;6.30;4.10;;;;;;;22.53;40.92;96597.41;5027127;28;20187;-70
2023/06/27 06:47:01;;;;;;;16.87;4.47;;;;;;;22.64;40.08;96603.66;5027203;28;20254;-69
2023/06/27 06:49:26;;;;;;;14.70;4.43;;;;;;;23.08;40.28;96602.34;5027897;28;20724;-69
2023/06/27 06:51:51;;;;;;;3.90;2.50;;;;;;;22.11;39.46;96596.66;5027644;28;20180;-70
2023/06/27 06:54:17;;;;;;;7.30;3.27;;;;;;;22.08;39.61;96592.44;5026702;28;20199;-69
2023/06/27 06:56:43;;;;;;;8.10;3.60;;;;;;;23.16;38.58;96582.91;5027319;28;20268;-69
2023/06/27 06:59:08;;;;;;;13.23;3.90;;;;;;;23.50;38.18;96585.13;5027130;28;20566;-70
2023/06/27 07:01:34;;;;;;;9.03;3.23;;;;;;;23.59;36.26;96584.28;5019070;28;20180;-68
2023/06/27 07:03:59;;;;;;;5.50;3.10;;;;;;;22.54;37.54;96592.94;5006503;28;20211;-69
2023/06/27 07:06:24;;;;;;;15.57;3.83;;;;;;;22.31;38.27;96593.13;5013624;28;20178;-70
2023/06/27 07:08:52;;;;;;;4.17;3.00;;;;;;;22.70;37.60;96581.69;5027403;28;20163;-70
2023/06/27 07:11:17;;;;;;;5.50;3.17;;;;;;;23.63;36.57;96565.09;5027185;28;20183;-69
2023/06/27 07:13:43;;;;;;;3.60;2.50;;;;;;;23.10;37.28;96576.25;5026699;28;20438;-69
2023/06/27 07:16:08;;;;;;;4.43;2.97;;;;;;;22.11;39.64;96589.50;5027446;28;20182;-70
2023/06/27 07:18:34;;;;;;;5.60;3.27;;;;;;;22.16;40.52;96581.94;5026644;28;20352;-70
2023/06/27 07:20:59;;;;;;;10.67;3.33;;;;;;;22.49;39.11;96585.31;5026689;28;20180;-69
2023/06/27 07:23:24;;;;;;;8.63;3.23;;;;;;;23.27;38.56;96588.13;5027437;28;20188;-70
2023/06/27 07:25:50;;;;;;;5.50;2.77;;;;;;;23.78;37.19;96581.56;5026417;28;20167;-71
2023/06/27 07:28:16;;;;;;;6.17;2.77;;;;;;;23.76;35.47;96582.72;5026589;28;20182;-69
2023/06/27 07:30:45;;;;;;;17.53;4.20;;;;;;;23.91;35.63;96589.31;5025574;28;20167;-69
2023/06/27 07:33:12;;;;;;;11.77;5.10;;;;;;;24.19;34.51;96579.47;5026629;28;20726;-68
2023/06/27 07:35:38;;;;;;;5.00;2.30;;;;;;;23.80;33.80;96579.59;5026441;28;21212;-71
2023/06/27 07:38:03;;;;;;;4.83;2.73;;;;;;;24.09;34.43;96581.34;5026813;28;20449;-70
2023/06/27 07:40:28;;;;;;;4.20;2.40;;;;;;;23.54;34.04;96582.00;5027160;28;20298;-70
2023/06/27 07:42:54;;;;;;;7.00;2.33;;;;;;;22.69;35.30;96580.84;5027414;28;20195;-70
2023/06/27 07:45:19;;;;;;;4.60;2.53;;;;;;;22.81;35.64;96579.72;5026878;28;20281;-69
2023/06/27 07:47:44;;;;;;;6.03;3.10;;;;;;;21.77;37.50;96581.72;5026269;28;20260;-70
2023/06/27 07:50:10;;;;;;;3.83;2.20;;;;;;;22.09;37.15;96582.63;5026588;28;20178;-70
2023/06/27 07:52:35;;;;;;;9.63;3.40;;;;;;;22.33;37.20;96579.63;5026706;28;20179;-70
2023/06/27 07:55:01;;;;;;;9.63;3.00;;;;;;;23.16;35.52;96572.19;5041302;28;20179;-69
2023/06/27 07:57:26;;;;;;;7.00;3.90;;;;;;;22.69;36.53;96577.31;5025706;28;20171;-68
2023/06/27 07:59:52;;;;;;;6.87;3.37;;;;;;;22.81;36.23;96574.38;5026006;28;20198;-70
2023/06/27 08:02:17;;;;;;;3.80;2.90;;;;;;;22.36;36.89;96576.69;5026553;28;20184;-69
2023/06/27 08:04:43;;;;;;;5.93;3.70;;;;;;;22.54;37.54;96577.72;5025946;28;20609;-69
2023/06/27 08:07:08;;;;;;;6.17;3.23;;;;;;;23.24;35.68;96577.66;5026157;28;20178;-69
2023/06/27 08:09:34;;;;;;;8.13;2.73;;;;;;;23.31;35.16;96567.25;5026909;28;20172;-70
2023/06/27 08:11:59;;;;;;;8.43;3.77;;;;;;;23.21;35.54;96564.56;5026725;28;20191;-69
2023/06/27 08:14:26;;;;;;;8.47;3.13;;;;;;;24.06;34.36;96558.34;5025936;28;20199;-70
2023/06/27 08:16:51;;;;;;;6.70;3.20;;;;;;;24.47;33.34;96548.19;5026152;28;20179;-69
2023/06/27 08:19:16;;;;;;;20.20;4.80;;;;;;;23.76;33.84;96564.78;5026315;28;20959;-69
2023/06/27 08:21:42;;;;;;;6.10;3.17;;;;;;;23.74;34.49;96555.22;5025932;28;20180;-70
2023/06/27 08:24:08;;;;;;;3.43;2.90;;;;;;;22.69;36.21;96554.09;5029284;28;20191;-71
2023/06/27 08:26:33;;;;;;;6.40;3.10;;;;;;;22.82;36.70;96554.69;5036534;28;20239;-71
2023/06/27 08:28:58;;;;;;;5.10;2.63;;;;;;;23.66;35.19;96548.72;5036253;28;20205;-70
2023/06/27 08:31:24;;;;;;;5.30;2.90;;;;;;;22.97;36.01;96546.25;5037263;28;20189;-70
2023/06/27 08:33:49;;;;;;;4.63;3.30;;;;;;;22.72;36.49;96556.47;5035632;28;20218;-70
2023/06/27 08:36:15;;;;;;;7.97;3.33;;;;;;;22.79;36.51;96557.63;5035624;28;20186;-70
2023/06/27 08:38:40;;;;;;;6.13;2.60;;;;;;;22.86;36.06;96555.22;5037691;28;20276;-70
2023/06/27 08:41:05;;;;;;;5.50;2.90;;;;;;;23.09;36.00;96549.66;5036559;28;20187;-70
2023/06/27 08:43:31;;;;;;;6.83;3.20;;;;;;;22.78;36.23;96563.97;5036516;28;20195;-70
2023/06/27 08:45:57;;;;;;;10.30;3.70;;;;;;;22.60;36.98;96558.44;5037733;28;20182;-70
2023/06/27 08:48:23;;;;;;;3.60;2.53;;;;;;;22.93;36.02;96550.16;5042204;28;20175;-70
2023/06/27 08:50:53;;;;;;;8.60;3.77;;;;;;;23.78;34.78;96544.06;5036348;28;20406;-69
2023/06/27 08:53:21;;;;;;;7.80;3.53;;;;;;;24.12;34.35;96548.88;5029136;28;20751;-69
2023/06/27 08:56:04;;;;;;;33.47;7.50;;;;;;;24.26;33.96;96547.53;5028955;28;20778;-69
2023/06/27 08:58:41;;;;;;;20.17;5.27;;;;;;;24.62;33.50;96540.44;5028390;28;20465;-70
2023/06/27 09:01:08;;;;;;;12.03;3.93;;;;;;;24.88;33.20;96543.22;5028463;28;20414;-69
2023/06/27 09:03:35;;;;;;;7.30;3.10;;;;;;;25.27;32.85;96534.03;5027783;28;20507;-70
2023/06/27 09:06:03;;;;;;;7.00;3.63;;;;;;;25.26;31.16;96530.50;5028598;28;20501;-70
2023/06/27 09:08:29;;;;;;;6.57;3.23;;;;;;;25.31;32.53;96530.03;5028592;28;20748;-70
2023/06/27 09:10:55;;;;;;;8.73;3.50;;;;;;;24.60;32.03;96520.97;5028321;28;20410;-71
2023/06/27 09:13:22;;;;;;;4.00;3.60;;;;;;;23.90;33.71;96512.56;5028130;28;20199;-70
2023/06/27 09:15:48;;;;;;;4.10;3.23;;;;;;;23.90;33.93;96512.56;5028359;28;20183;-70
2023/06/27 09:18:13;;;;;;;13.37;3.87;;;;;;;23.73;34.24;96497.22;5028338;28;20571;-70
2023/06/27 09:20:39;;;;;;;5.63;2.90;;;;;;;23.94;33.66;96503.25;5028509;28;20167;-70
2023/06/27 09:23:05;;;;;;;8.73;3.27;;;;;;;23.25;34.91;96504.41;5028530;28;20754;-69
2023/06/27 09:25:31;;;;;;;3.43;2.90;;;;;;;22.94;35.30;96506.38;5013715;28;20181;-70
2023/06/27 09:27:58;;;;;;;8.67;3.50;;;;;;;23.20;35.40;96499.47;5008438;28;20770;-69
2023/06/27 09:30:24;;;;;;;5.20;3.20;;;;;;;23.36;34.78;96511.41;5010145;28;20560;-69
2023/06/27 09:32:59;;;;;;;7.20;3.07;;;;;;;23.02;35.33;96515.41;5028057;28;20503;-70
2023/06/27 09:35:26;;;;;;;11.03;3.60;;;;;;;23.65;35.22;96519.41;5027606;28;20222;-70
2023/06/27 09:38:02;;;;;;;8.20;3.63;;;;;;;23.04;35.82;96521.47;5021705;28;20447;-71
2023/06/27 09:40:28;;;;;;;6.67;3.50;;;;;;;22.54;36.79;96523.41;5027460;28;20413;-70
2023/06/27 09:42:55;;;;;;;4.00;3.60;;;;;;;22.30;36.79;96515.72;5027250;28;20444;-70
2023/06/27 09:45:22;;;;;;;16.97;4.47;;;;;;;23.08;35.38;96505.97;5026445;28;20629;-69
2023/06/27 09:47:51;;;;;;;8.43;4.03;;;;;;;22.74;36.09;96511.72;5027536;28;20404;-68
2023/06/27 09:50:17;;;;;;;6.47;4.50;;;;;;;22.66;36.22;96506.22;5027514;28;20418;-68
2023/06/27 09:52:51;;;;;;;10.67;3.90;;;;;;;22.36;36.47;96505.31;5027005;28;20441;-69
2023/06/27 09:55:20;;;;;;;8.57;3.33;;;;;;;22.55;35.87;96499.16;5025122;28;20938;-70
2023/06/27 09:57:46;;;;;;;6.10;3.73;;;;;;;22.82;35.93;96495.81;5028422;28;20470;-70
2023/06/27 10:00:12;;;;;;;6.53;3.30;;;;;;;23.49;34.81;96501.25;5027090;28;20422;-70
2023/06/27 10:02:38;;;;;;;10.17;3.40;;;;;;;23.86;33.41;96495.09;5026529;28;20418;-70
2023/06/27 10:05:24;;;;;;;47.30;6.70;;;;;;;24.26;33.01;96497.44;5026884;28;20552;-70
2023/06/27 10:07:52;;;;;;;11.60;3.83;;;;;;;24.58;33.13;96503.34;4983651;28;20235;-70
2023/06/27 10:10:20;;;;;;;6.83;3.60;;;;;;;24.50;33.10;96498.75;4965249;28;20975;-69
2023/06/27 10:12:46;;;;;;;6.90;3.30;;;;;;;24.38;33.56;96498.06;4965142;28;20445;-70
2023/06/27 10:15:12;;;;;;;13.40;4.30;;;;;;;23.97;34.03;96491.38;4965705;28;20631;-70
2023/06/27 10:17:38;;;;;;;5.10;3.00;;;;;;;24.20;34.29;96491.81;4964460;28;20938;-69
2023/06/27 10:20:11;;;;;;;9.40;4.00;;;;;;;24.33;33.38;96496.81;4952287;28;20703;-69
2023/06/27 10:22:39;;;;;;;6.93;3.83;;;;;;;24.63;32.57;96493.00;4975790;28;20182;-68
2023/06/27 10:25:06;;;;;;;6.40;3.50;;;;;;;24.68;33.07;96482.63;4964655;28;20476;-69
2023/06/27 10:27:35;;;;;;;8.17;3.27;;;;;;;24.73;32.99;96496.44;4967403;28;20983;-70
2023/06/27 10:30:29;;;;;;;7.87;3.90;;;;;;;24.75;32.59;96493.59;4983874;28;20428;-69
2023/06/27 10:33:08;;;;;;;13.70;4.93;;;;;;;24.71;32.76;96479.66;4978166;28;20522;-69
2023/06/27 10:35:39;;;;;;;27.47;5.53;;;;;;;24.56;33.08;96486.53;4984123;28;20407;-69
2023/06/27 10:38:14;;;;;;;8.03;3.50;;;;;;;24.49;32.38;96480.94;4976029;28;20452;-69
2023/06/27 10:41:06;;;;;;;7.00;3.67;;;;;;;24.44;33.90;96496.63;4964666;28;20408;-69
2023/06/27 10:43:47;;;;;;;5.33;3.53;;;;;;;24.41;33.16;96491.56;4976673;28;20460;-68
2023/06/27 10:46:22;;;;;;;9.97;3.63;;;;;;;24.50;32.56;96490.69;5005831;28;20419;-69
2023/06/27 10:48:53;;;;;;;20.10;4.10;;;;;;;24.50;33.18;96490.69;5007161;28;20884;-69
2023/06/27 10:51:21;;;;;;;9.10;4.43;;;;;;;24.30;33.74;96492.59;5010424;28;20465;-67
2023/06/27 10:54:08;;;;;;;9.73;4.10;;;;;;;24.28;34.37;96495.47;5024759;28;20448;-69
2023/06/27 10:56:44;;;;;;;4.50;3.47;;;;;;;24.38;33.69;96495.41;5025184;28;20411;-69
2023/06/27 10:59:12;;;;;;;10.10;3.57;;;;;;;24.48;33.84;96493.50;5025773;28;20507;-69
2023/06/27 11:01:50;;;;;;;8.37;3.93;;;;;;;24.47;33.77;96494.53;5027149;28;20426;-70
2023/06/27 11:04:25;;;;;;;4.73;3.50;;;;;;;24.44;33.40;96496.63;5027801;28;20425;-67
2023/06/27 11:06:57;;;;;;;5.63;3.47;;;;;;;24.30;33.66;96488.06;5026084;28;20510;-69
2023/06/27 11:09:23;;;;;;;9.93;3.67;;;;;;;24.43;32.94;96490.41;5026418;28;20406;-66
2023/06/27 11:12:09;;;;;;;11.80;3.70;;;;;;;24.47;32.18;96489.16;5026165;28;20433;-70
2023/06/27 11:14:38;;;;;;;7.20;3.40;;;;;;;24.65;32.38;96485.63;5026699;28;20292;-70
2023/06/27 11:17:04;;;;;;;4.63;3.23;;;;;;;24.83;31.35;96489.16;5025694;28;20417;-70
2023/06/27 11:19:34;;;;;;;9.60;3.57;;;;;;;24.74;31.22;96486.56;5025652;28;20454;-69
2023/06/27 11:22:01;;;;;;;14.50;4.47;;;;;;;24.72;32.56;96486.72;5025822;28;20266;-68
2023/06/27 11:24:29;;;;;;;7.90;3.87;;;;;;;24.65;32.68;96483.78;5024996;28;20422;-68
2023/06/27 11:26:55;;;;;;;7.83;3.00;;;;;;;24.71;31.69;96488.56;5025753;28;20421;-69
2023/06/27 11:29:21;;;;;;;9.40;4.00;;;;;;;24.89;32.20;96487.69;5025157;28;20413;-69